sensor_id;sensor_type;location;lat;lon;timestamp;temperature;humidity
15257;DHT22;7731;50.720;6.912;2023-03-14T00:02:02;11.40;99.90
15257;DHT22;7731;50.720;6.912;2023-03-14T00:04:32;11.40;99.90
15257;DHT22;7731;50.720;6.912;2023-03-14T00:07:05;11.40;99.90
15257;DHT22;7731;50.720;6.912;2023-03-14T00:09:35;11.30;99.90
15257;DHT22;7731;50.720;6.912;2023-03-14T00:12:09;11.40;99.90
15257;DHT22;7731;50.720;6.912;2023-03-14T00:14:41;11.40;99.90
15257;DHT22;7731;50.720;6.912;2023-03-14T00:17:11;11.50;99.90
15257;DHT22;7731;50.720;6.912;2023-03-14T00:19:41;11.50;99.90
15257;DHT22;7731;50.720;6.912;2023-03-14T00:22:14;11.60;99.90
15257;DHT22;7731;50.720;6.912;2023-03-14T00:24:45;11.70;99.90
15257;DHT22;7731;50.720;6.912;2023-03-14T00:27:15;11.80;99.90
15257;DHT22;7731;50.720;6.912;2023-03-14T00:29:49;11.80;99.90
15257;DHT22;7731;50.720;6.912;2023-03-14T00:32:19;11.80;99.90
15257;DHT22;7731;50.720;6.912;2023-03-14T00:34:49;11.80;99.90
15257;DHT22;7731;50.720;6.912;2023-03-14T00:37:22;11.70;99.90
15257;DHT22;7731;50.720;6.912;2023-03-14T00:39:52;11.60;99.90
15257;DHT22;7731;50.720;6.912;2023-03-14T00:42:25;11.50;99.90
15257;DHT22;7731;50.720;6.912;2023-03-14T00:44:58;11.40;99.90
15257;DHT22;7731;50.720;6.912;2023-03-14T00:47:28;11.40;99.90
15257;DHT22;7731;50.720;6.912;2023-03-14T00:49:58;11.50;99.90
15257;DHT22;7731;50.720;6.912;2023-03-14T00:52:32;11.50;99.90
15257;DHT22;7731;50.720;6.912;2023-03-14T00:55:05;11.50;99.90
15257;DHT22;7731;50.720;6.912;2023-03-14T00:57:36;11.40;99.90
15257;DHT22;7731;50.720;6.912;2023-03-14T01:00:07;11.40;99.90
15257;DHT22;7731;50.720;6.912;2023-03-14T01:02:40;11.30;99.90
15257;DHT22;7731;50.720;6.912;2023-03-14T01:05:12;11.30;99.90
15257;DHT22;7731;50.720;6.912;2023-03-14T01:07:45;11.30;99.90
15257;DHT22;7731;50.720;6.912;2023-03-14T01:10:15;11.30;99.90
15257;DHT22;7731;50.720;6.912;2023-03-14T01:12:45;11.20;99.90
15257;DHT22;7731;50.720;6.912;2023-03-14T01:15:15;11.30;99.90
15257;DHT22;7731;50.720;6.912;2023-03-14T01:17:46;11.30;99.90
15257;DHT22;7731;50.720;6.912;2023-03-14T01:20:17;11.20;99.90
15257;DHT22;7731;50.720;6.912;2023-03-14T01:22:53;11.30;99.90
15257;DHT22;7731;50.720;6.912;2023-03-14T01:25:23;11.20;99.90
15257;DHT22;7731;50.720;6.912;2023-03-14T01:27:53;11.20;99.90
15257;DHT22;7731;50.720;6.912;2023-03-14T01:30:24;11.10;99.90
15257;DHT22;7731;50.720;6.912;2023-03-14T01:32:54;11.20;99.90
15257;DHT22;7731;50.720;6.912;2023-03-14T01:35:31;11.20;99.90
15257;DHT22;7731;50.720;6.912;2023-03-14T01:38:07;11.10;99.90
15257;DHT22;7731;50.720;6.912;2023-03-14T01:40:42;11.10;99.90
15257;DHT22;7731;50.720;6.912;2023-03-14T01:43:15;11.10;99.90
15257;DHT22;7731;50.720;6.912;2023-03-14T01:46:16;11.10;99.90
15257;DHT22;7731;50.720;6.912;2023-03-14T01:49:01;11.20;99.90
15257;DHT22;7731;50.720;6.912;2023-03-14T01:51:41;11.20;99.90
15257;DHT22;7731;50.720;6.912;2023-03-14T01:54:21;11.20;99.90
15257;DHT22;7731;50.720;6.912;2023-03-14T01:56:57;11.20;99.90
15257;DHT22;7731;50.720;6.912;2023-03-14T01:59:37;11.00;99.90
15257;DHT22;7731;50.720;6.912;2023-03-14T02:02:12;10.90;99.90
15257;DHT22;7731;50.720;6.912;2023-03-14T02:04:44;11.00;99.90
15257;DHT22;7731;50.720;6.912;2023-03-14T02:07:17;10.90;99.90
15257;DHT22;7731;50.720;6.912;2023-03-14T02:09:52;10.60;99.90
15257;DHT22;7731;50.720;6.912;2023-03-14T02:12:26;10.50;99.90
15257;DHT22;7731;50.720;6.912;2023-03-14T02:14:56;10.50;99.90
15257;DHT22;7731;50.720;6.912;2023-03-14T02:17:27;10.40;99.90
15257;DHT22;7731;50.720;6.912;2023-03-14T02:20:18;10.40;99.90
15257;DHT22;7731;50.720;6.912;2023-03-14T02:22:58;10.40;99.90
15257;DHT22;7731;50.720;6.912;2023-03-14T02:25:41;10.50;99.90
15257;DHT22;7731;50.720;6.912;2023-03-14T02:28:18;10.70;99.90
15257;DHT22;7731;50.720;6.912;2023-03-14T02:30:52;10.80;99.90
15257;DHT22;7731;50.720;6.912;2023-03-14T02:33:23;10.80;99.90
15257;DHT22;7731;50.720;6.912;2023-03-14T02:35:56;10.70;99.90
15257;DHT22;7731;50.720;6.912;2023-03-14T02:38:33;10.70;99.90
15257;DHT22;7731;50.720;6.912;2023-03-14T02:41:08;10.60;99.90
15257;DHT22;7731;50.720;6.912;2023-03-14T02:43:41;10.60;99.90
15257;DHT22;7731;50.720;6.912;2023-03-14T02:46:13;10.50;99.90
15257;DHT22;7731;50.720;6.912;2023-03-14T02:48:49;10.50;99.90
15257;DHT22;7731;50.720;6.912;2023-03-14T02:51:28;10.50;99.90
15257;DHT22;7731;50.720;6.912;2023-03-14T02:53:59;10.50;99.90
15257;DHT22;7731;50.720;6.912;2023-03-14T02:56:29;10.40;99.90
15257;DHT22;7731;50.720;6.912;2023-03-14T02:59:11;10.40;99.90
15257;DHT22;7731;50.720;6.912;2023-03-14T03:01:41;10.40;99.90
15257;DHT22;7731;50.720;6.912;2023-03-14T03:04:11;10.40;99.90
15257;DHT22;7731;50.720;6.912;2023-03-14T03:06:41;10.40;99.90
15257;DHT22;7731;50.720;6.912;2023-03-14T03:09:12;10.40;99.90
15257;DHT22;7731;50.720;6.912;2023-03-14T03:11:42;10.40;99.90
15257;DHT22;7731;50.720;6.912;2023-03-14T03:14:15;10.50;99.90
15257;DHT22;7731;50.720;6.912;2023-03-14T03:16:45;10.50;99.90
15257;DHT22;7731;50.720;6.912;2023-03-14T03:19:15;10.50;99.90
15257;DHT22;7731;50.720;6.912;2023-03-14T03:21:48;10.50;99.90
15257;DHT22;7731;50.720;6.912;2023-03-14T03:24:19;10.60;99.90
15257;DHT22;7731;50.720;6.912;2023-03-14T03:26:49;10.60;99.90
15257;DHT22;7731;50.720;6.912;2023-03-14T03:29:24;10.60;99.90
15257;DHT22;7731;50.720;6.912;2023-03-14T03:31:55;10.60;99.90
15257;DHT22;7731;50.720;6.912;2023-03-14T03:34:25;10.60;99.90
15257;DHT22;7731;50.720;6.912;2023-03-14T03:36:57;10.50;99.90
15257;DHT22;7731;50.720;6.912;2023-03-14T03:39:27;10.60;99.90
15257;DHT22;7731;50.720;6.912;2023-03-14T03:41:57;10.60;99.90
15257;DHT22;7731;50.720;6.912;2023-03-14T03:44:30;10.60;99.90
15257;DHT22;7731;50.720;6.912;2023-03-14T03:47:00;10.60;99.90
15257;DHT22;7731;50.720;6.912;2023-03-14T03:49:33;10.60;99.90
15257;DHT22;7731;50.720;6.912;2023-03-14T03:52:03;10.50;99.90
15257;DHT22;7731;50.720;6.912;2023-03-14T03:54:33;10.50;99.90
15257;DHT22;7731;50.720;6.912;2023-03-14T03:57:04;10.40;99.90
15257;DHT22;7731;50.720;6.912;2023-03-14T03:59:37;10.40;99.90
15257;DHT22;7731;50.720;6.912;2023-03-14T04:02:08;10.40;99.90
15257;DHT22;7731;50.720;6.912;2023-03-14T04:04:38;10.30;99.90
15257;DHT22;7731;50.720;6.912;2023-03-14T04:07:11;10.30;99.90
15257;DHT22;7731;50.720;6.912;2023-03-14T04:09:43;10.30;99.90
15257;DHT22;7731;50.720;6.912;2023-03-14T04:12:13;10.30;99.90
15257;DHT22;7731;50.720;6.912;2023-03-14T04:14:46;10.20;99.90
15257;DHT22;7731;50.720;6.912;2023-03-14T04:17:16;10.20;99.90
15257;DHT22;7731;50.720;6.912;2023-03-14T04:19:48;10.20;99.90
15257;DHT22;7731;50.720;6.912;2023-03-14T04:22:20;10.30;99.90
15257;DHT22;7731;50.720;6.912;2023-03-14T04:24:51;10.20;99.90
15257;DHT22;7731;50.720;6.912;2023-03-14T04:27:21;10.20;99.90
15257;DHT22;7731;50.720;6.912;2023-03-14T04:29:53;10.30;99.90
15257;DHT22;7731;50.720;6.912;2023-03-14T04:32:24;10.40;99.90
15257;DHT22;7731;50.720;6.912;2023-03-14T04:34:54;10.50;99.90
15257;DHT22;7731;50.720;6.912;2023-03-14T04:37:24;10.50;99.90
15257;DHT22;7731;50.720;6.912;2023-03-14T04:39:54;10.50;99.90
15257;DHT22;7731;50.720;6.912;2023-03-14T04:42:24;10.50;99.90
15257;DHT22;7731;50.720;6.912;2023-03-14T04:44:57;10.50;99.90
15257;DHT22;7731;50.720;6.912;2023-03-14T04:47:27;10.50;99.90
15257;DHT22;7731;50.720;6.912;2023-03-14T04:49:58;10.50;99.90
15257;DHT22;7731;50.720;6.912;2023-03-14T04:52:28;10.40;99.90
15257;DHT22;7731;50.720;6.912;2023-03-14T04:54:59;10.40;99.90
15257;DHT22;7731;50.720;6.912;2023-03-14T04:57:31;10.40;99.90
15257;DHT22;7731;50.720;6.912;2023-03-14T05:00:08;10.50;99.90
15257;DHT22;7731;50.720;6.912;2023-03-14T05:02:39;10.50;99.90
15257;DHT22;7731;50.720;6.912;2023-03-14T05:05:10;10.40;99.90
15257;DHT22;7731;50.720;6.912;2023-03-14T05:07:43;10.30;99.90
15257;DHT22;7731;50.720;6.912;2023-03-14T05:10:13;10.20;99.90
15257;DHT22;7731;50.720;6.912;2023-03-14T05:12:43;10.20;99.90
15257;DHT22;7731;50.720;6.912;2023-03-14T05:15:16;10.20;99.90
15257;DHT22;7731;50.720;6.912;2023-03-14T05:17:46;10.20;99.90
15257;DHT22;7731;50.720;6.912;2023-03-14T05:20:16;10.20;99.90
15257;DHT22;7731;50.720;6.912;2023-03-14T05:22:47;10.20;99.90
15257;DHT22;7731;50.720;6.912;2023-03-14T05:25:17;10.10;99.90
15257;DHT22;7731;50.720;6.912;2023-03-14T05:27:47;10.00;99.90
15257;DHT22;7731;50.720;6.912;2023-03-14T05:30:20;10.00;99.90
15257;DHT22;7731;50.720;6.912;2023-03-14T05:32:51;10.00;99.90
15257;DHT22;7731;50.720;6.912;2023-03-14T05:35:21;10.00;99.90
15257;DHT22;7731;50.720;6.912;2023-03-14T05:37:51;10.00;99.90
15257;DHT22;7731;50.720;6.912;2023-03-14T05:40:22;9.90;99.90
15257;DHT22;7731;50.720;6.912;2023-03-14T05:42:52;9.80;99.90
15257;DHT22;7731;50.720;6.912;2023-03-14T05:45:24;9.80;99.90
15257;DHT22;7731;50.720;6.912;2023-03-14T05:47:56;9.90;99.90
15257;DHT22;7731;50.720;6.912;2023-03-14T05:50:26;9.90;99.90
15257;DHT22;7731;50.720;6.912;2023-03-14T05:52:56;9.90;99.90
15257;DHT22;7731;50.720;6.912;2023-03-14T05:55:26;10.00;99.90
15257;DHT22;7731;50.720;6.912;2023-03-14T05:57:57;10.00;99.90
15257;DHT22;7731;50.720;6.912;2023-03-14T06:00:39;10.00;99.90
15257;DHT22;7731;50.720;6.912;2023-03-14T06:03:11;10.00;99.90
15257;DHT22;7731;50.720;6.912;2023-03-14T06:05:42;10.10;99.90
15257;DHT22;7731;50.720;6.912;2023-03-14T06:08:12;10.10;99.90
15257;DHT22;7731;50.720;6.912;2023-03-14T06:10:43;10.00;99.90
15257;DHT22;7731;50.720;6.912;2023-03-14T06:13:16;10.00;99.90
15257;DHT22;7731;50.720;6.912;2023-03-14T06:15:51;10.00;99.90
15257;DHT22;7731;50.720;6.912;2023-03-14T06:18:24;10.10;99.90
15257;DHT22;7731;50.720;6.912;2023-03-14T06:20:55;10.10;99.90
15257;DHT22;7731;50.720;6.912;2023-03-14T06:23:28;10.10;99.90
15257;DHT22;7731;50.720;6.912;2023-03-14T06:25:59;10.20;99.90
15257;DHT22;7731;50.720;6.912;2023-03-14T06:28:31;10.30;99.90
15257;DHT22;7731;50.720;6.912;2023-03-14T06:31:04;10.30;99.90
15257;DHT22;7731;50.720;6.912;2023-03-14T06:33:35;10.30;99.90
15257;DHT22;7731;50.720;6.912;2023-03-14T06:36:07;10.30;99.90
15257;DHT22;7731;50.720;6.912;2023-03-14T06:38:38;10.30;99.90
15257;DHT22;7731;50.720;6.912;2023-03-14T06:41:08;10.40;99.90
15257;DHT22;7731;50.720;6.912;2023-03-14T06:43:38;10.40;99.90
15257;DHT22;7731;50.720;6.912;2023-03-14T06:46:14;10.40;99.90
15257;DHT22;7731;50.720;6.912;2023-03-14T06:48:45;10.60;99.90
15257;DHT22;7731;50.720;6.912;2023-03-14T06:51:15;10.70;99.90
15257;DHT22;7731;50.720;6.912;2023-03-14T06:53:45;10.80;99.90
15257;DHT22;7731;50.720;6.912;2023-03-14T06:56:15;10.90;99.90
15257;DHT22;7731;50.720;6.912;2023-03-14T06:58:46;11.00;99.90
15257;DHT22;7731;50.720;6.912;2023-03-14T07:01:22;11.10;99.90
15257;DHT22;7731;50.720;6.912;2023-03-14T07:03:56;11.00;99.90
15257;DHT22;7731;50.720;6.912;2023-03-14T07:06:26;11.00;99.90
15257;DHT22;7731;50.720;6.912;2023-03-14T07:08:57;11.00;99.90
15257;DHT22;7731;50.720;6.912;2023-03-14T07:11:29;11.00;99.90
15257;DHT22;7731;50.720;6.912;2023-03-14T07:14:00;11.10;99.90
15257;DHT22;7731;50.720;6.912;2023-03-14T07:16:32;11.20;99.90
15257;DHT22;7731;50.720;6.912;2023-03-14T07:19:03;11.20;99.90
15257;DHT22;7731;50.720;6.912;2023-03-14T07:21:33;11.20;99.90
15257;DHT22;7731;50.720;6.912;2023-03-14T07:24:05;11.30;99.90
15257;DHT22;7731;50.720;6.912;2023-03-14T07:26:36;11.20;99.90
15257;DHT22;7731;50.720;6.912;2023-03-14T07:29:06;11.20;99.90
15257;DHT22;7731;50.720;6.912;2023-03-14T07:31:39;11.10;99.90
15257;DHT22;7731;50.720;6.912;2023-03-14T07:34:09;11.10;99.90
15257;DHT22;7731;50.720;6.912;2023-03-14T07:36:40;11.10;99.90
15257;DHT22;7731;50.720;6.912;2023-03-14T07:39:13;11.20;99.90
15257;DHT22;7731;50.720;6.912;2023-03-14T07:41:44;11.50;99.90
15257;DHT22;7731;50.720;6.912;2023-03-14T07:44:16;11.80;99.90
15257;DHT22;7731;50.720;6.912;2023-03-14T07:46:49;12.00;99.90
15257;DHT22;7731;50.720;6.912;2023-03-14T07:49:19;12.30;99.90
15257;DHT22;7731;50.720;6.912;2023-03-14T07:51:49;12.40;99.90
15257;DHT22;7731;50.720;6.912;2023-03-14T07:54:19;12.70;99.90
15257;DHT22;7731;50.720;6.912;2023-03-14T07:56:50;13.30;99.90
15257;DHT22;7731;50.720;6.912;2023-03-14T07:59:23;14.10;60.70
15257;DHT22;7731;50.720;6.912;2023-03-14T08:01:56;14.50;39.20
15257;DHT22;7731;50.720;6.912;2023-03-14T08:04:26;15.10;1.00
15257;DHT22;7731;50.720;6.912;2023-03-14T08:06:56;15.00;1.00
15257;DHT22;7731;50.720;6.912;2023-03-14T08:09:27;15.20;1.00
15257;DHT22;7731;50.720;6.912;2023-03-14T08:11:57;15.30;1.00
15257;DHT22;7731;50.720;6.912;2023-03-14T08:14:27;15.10;1.00
15257;DHT22;7731;50.720;6.912;2023-03-14T08:17:00;15.30;1.00
15257;DHT22;7731;50.720;6.912;2023-03-14T08:19:30;16.30;99.90
15257;DHT22;7731;50.720;6.912;2023-03-14T08:22:00;16.70;92.10
15257;DHT22;7731;50.720;6.912;2023-03-14T08:24:31;16.50;99.90
15257;DHT22;7731;50.720;6.912;2023-03-14T08:27:01;16.10;1.00
15257;DHT22;7731;50.720;6.912;2023-03-14T08:29:34;16.00;1.00
15257;DHT22;7731;50.720;6.912;2023-03-14T08:32:07;15.10;1.00
15257;DHT22;7731;50.720;6.912;2023-03-14T08:34:37;14.30;42.80
15257;DHT22;7731;50.720;6.912;2023-03-14T08:37:07;14.00;99.90
15257;DHT22;7731;50.720;6.912;2023-03-14T08:39:53;13.90;99.90
15257;DHT22;7731;50.720;6.912;2023-03-14T08:42:24;13.80;99.90
15257;DHT22;7731;50.720;6.912;2023-03-14T08:44:54;13.80;99.90
15257;DHT22;7731;50.720;6.912;2023-03-14T08:47:30;13.80;99.90
15257;DHT22;7731;50.720;6.912;2023-03-14T08:50:00;13.50;99.90
15257;DHT22;7731;50.720;6.912;2023-03-14T08:52:31;13.50;99.90
15257;DHT22;7731;50.720;6.912;2023-03-14T08:55:02;13.50;99.90
15257;DHT22;7731;50.720;6.912;2023-03-14T08:57:33;13.50;99.90
15257;DHT22;7731;50.720;6.912;2023-03-14T09:00:04;13.20;99.90
15257;DHT22;7731;50.720;6.912;2023-03-14T09:02:42;13.10;99.90
15257;DHT22;7731;50.720;6.912;2023-03-14T09:05:13;12.70;99.90
15257;DHT22;7731;50.720;6.912;2023-03-14T09:07:43;12.40;99.90
15257;DHT22;7731;50.720;6.912;2023-03-14T09:10:14;12.40;99.90
15257;DHT22;7731;50.720;6.912;2023-03-14T09:12:47;12.30;99.90
15257;DHT22;7731;50.720;6.912;2023-03-14T09:15:18;12.30;99.90
15257;DHT22;7731;50.720;6.912;2023-03-14T09:17:51;12.20;99.90
15257;DHT22;7731;50.720;6.912;2023-03-14T09:20:21;12.20;99.90
15257;DHT22;7731;50.720;6.912;2023-03-14T09:22:51;12.20;99.90
15257;DHT22;7731;50.720;6.912;2023-03-14T09:25:21;12.30;99.90
15257;DHT22;7731;50.720;6.912;2023-03-14T09:27:54;12.40;99.90
15257;DHT22;7731;50.720;6.912;2023-03-14T09:30:24;12.40;99.90
15257;DHT22;7731;50.720;6.912;2023-03-14T09:32:56;12.40;99.90
15257;DHT22;7731;50.720;6.912;2023-03-14T09:35:27;12.20;99.90
15257;DHT22;7731;50.720;6.912;2023-03-14T09:37:58;12.10;99.90
15257;DHT22;7731;50.720;6.912;2023-03-14T09:40:40;12.00;99.90
15257;DHT22;7731;50.720;6.912;2023-03-14T09:43:11;11.90;99.90
15257;DHT22;7731;50.720;6.912;2023-03-14T09:45:46;12.00;99.90
15257;DHT22;7731;50.720;6.912;2023-03-14T09:48:26;11.70;99.90
15257;DHT22;7731;50.720;6.912;2023-03-14T09:51:01;10.90;99.90
15257;DHT22;7731;50.720;6.912;2023-03-14T09:53:39;10.20;99.90
15257;DHT22;7731;50.720;6.912;2023-03-14T09:56:14;10.00;99.90
15257;DHT22;7731;50.720;6.912;2023-03-14T09:58:53;9.60;99.90
15257;DHT22;7731;50.720;6.912;2023-03-14T10:01:27;9.40;99.90
15257;DHT22;7731;50.720;6.912;2023-03-14T10:04:05;9.20;99.90
15257;DHT22;7731;50.720;6.912;2023-03-14T10:06:43;9.00;99.90
15257;DHT22;7731;50.720;6.912;2023-03-14T10:09:19;8.90;99.90
15257;DHT22;7731;50.720;6.912;2023-03-14T10:11:56;8.90;99.90
15257;DHT22;7731;50.720;6.912;2023-03-14T10:14:37;8.90;99.90
15257;DHT22;7731;50.720;6.912;2023-03-14T10:17:14;8.90;99.90
15257;DHT22;7731;50.720;6.912;2023-03-14T10:19:55;9.00;99.90
15257;DHT22;7731;50.720;6.912;2023-03-14T10:22:30;9.00;99.90
15257;DHT22;7731;50.720;6.912;2023-03-14T10:25:04;9.20;99.90
15257;DHT22;7731;50.720;6.912;2023-03-14T10:27:36;9.30;99.90
15257;DHT22;7731;50.720;6.912;2023-03-14T10:30:26;9.40;99.90
15257;DHT22;7731;50.720;6.912;2023-03-14T10:33:08;9.40;99.90
15257;DHT22;7731;50.720;6.912;2023-03-14T10:35:43;9.30;99.90
15257;DHT22;7731;50.720;6.912;2023-03-14T10:38:16;9.20;99.90
15257;DHT22;7731;50.720;6.912;2023-03-14T10:40:49;9.10;99.90
15257;DHT22;7731;50.720;6.912;2023-03-14T10:43:25;9.10;99.90
15257;DHT22;7731;50.720;6.912;2023-03-14T10:46:05;9.00;99.90
15257;DHT22;7731;50.720;6.912;2023-03-14T10:48:39;9.10;99.90
15257;DHT22;7731;50.720;6.912;2023-03-14T10:51:18;9.00;99.90
15257;DHT22;7731;50.720;6.912;2023-03-14T10:54:00;9.00;99.90
15257;DHT22;7731;50.720;6.912;2023-03-14T10:56:34;9.10;99.90
15257;DHT22;7731;50.720;6.912;2023-03-14T10:59:11;9.10;99.90
15257;DHT22;7731;50.720;6.912;2023-03-14T11:01:48;9.10;99.90
15257;DHT22;7731;50.720;6.912;2023-03-14T11:04:40;9.20;99.90
15257;DHT22;7731;50.720;6.912;2023-03-14T11:07:28;9.10;99.90
15257;DHT22;7731;50.720;6.912;2023-03-14T11:10:11;9.40;99.90
15257;DHT22;7731;50.720;6.912;2023-03-14T11:12:56;9.50;99.90
15257;DHT22;7731;50.720;6.912;2023-03-14T11:15:36;9.90;99.90
15257;DHT22;7731;50.720;6.912;2023-03-14T11:21:40;9.90;99.90
15257;DHT22;7731;50.720;6.912;2023-03-14T11:24:49;10.00;99.90
15257;DHT22;7731;50.720;6.912;2023-03-14T11:27:39;10.00;99.90
15257;DHT22;7731;50.720;6.912;2023-03-14T11:30:18;9.90;99.90
15257;DHT22;7731;50.720;6.912;2023-03-14T11:33:01;10.00;99.90
15257;DHT22;7731;50.720;6.912;2023-03-14T11:35:43;10.10;99.90
15257;DHT22;7731;50.720;6.912;2023-03-14T11:38:29;10.10;99.90
15257;DHT22;7731;50.720;6.912;2023-03-14T11:41:10;10.40;99.90
15257;DHT22;7731;50.720;6.912;2023-03-14T11:43:47;10.30;99.90
15257;DHT22;7731;50.720;6.912;2023-03-14T11:46:23;10.50;99.90
15257;DHT22;7731;50.720;6.912;2023-03-14T11:49:01;10.70;99.90
15257;DHT22;7731;50.720;6.912;2023-03-14T11:51:39;11.20;99.90
15257;DHT22;7731;50.720;6.912;2023-03-14T11:54:16;11.50;62.30
15257;DHT22;7731;50.720;6.912;2023-03-14T11:56:59;11.80;1.00
15257;DHT22;7731;50.720;6.912;2023-03-14T11:59:37;12.00;1.00
15257;DHT22;7731;50.720;6.912;2023-03-14T12:02:21;11.80;1.00
15257;DHT22;7731;50.720;6.912;2023-03-14T12:08:24;11.90;1.00
15257;DHT22;7731;50.720;6.912;2023-03-14T12:11:16;12.30;1.00
15257;DHT22;7731;50.720;6.912;2023-03-14T12:14:21;11.90;1.00
15257;DHT22;7731;50.720;6.912;2023-03-14T12:16:56;9.90;48.40
15257;DHT22;7731;50.720;6.912;2023-03-14T12:19:33;8.60;99.90
15257;DHT22;7731;50.720;6.912;2023-03-14T12:22:24;7.80;99.90
15257;DHT22;7731;50.720;6.912;2023-03-14T12:25:12;7.70;99.90
15257;DHT22;7731;50.720;6.912;2023-03-14T12:28:19;7.60;99.90
15257;DHT22;7731;50.720;6.912;2023-03-14T12:30:53;7.60;99.90
15257;DHT22;7731;50.720;6.912;2023-03-14T12:33:28;7.60;99.90
15257;DHT22;7731;50.720;6.912;2023-03-14T12:36:19;7.60;99.90
15257;DHT22;7731;50.720;6.912;2023-03-14T12:39:24;7.50;99.90
15257;DHT22;7731;50.720;6.912;2023-03-14T12:42:05;7.60;99.90
15257;DHT22;7731;50.720;6.912;2023-03-14T12:44:46;7.80;99.90
15257;DHT22;7731;50.720;6.912;2023-03-14T12:47:45;8.30;99.90
15257;DHT22;7731;50.720;6.912;2023-03-14T12:50:38;8.70;99.90
15257;DHT22;7731;50.720;6.912;2023-03-14T12:56:36;8.80;99.90
15257;DHT22;7731;50.720;6.912;2023-03-14T12:59:35;8.70;99.90
15257;DHT22;7731;50.720;6.912;2023-03-14T13:02:26;8.50;99.90
15257;DHT22;7731;50.720;6.912;2023-03-14T13:05:08;8.50;99.90
15257;DHT22;7731;50.720;6.912;2023-03-14T13:08:04;8.30;99.90
15257;DHT22;7731;50.720;6.912;2023-03-14T13:10:45;8.40;99.90
15257;DHT22;7731;50.720;6.912;2023-03-14T13:13:21;8.30;99.90
15257;DHT22;7731;50.720;6.912;2023-03-14T13:15:55;8.30;99.90
15257;DHT22;7731;50.720;6.912;2023-03-14T13:18:35;8.30;99.90
15257;DHT22;7731;50.720;6.912;2023-03-14T13:21:12;8.20;99.90
15257;DHT22;7731;50.720;6.912;2023-03-14T13:23:58;7.90;99.90
15257;DHT22;7731;50.720;6.912;2023-03-14T13:26:35;7.80;99.90
15257;DHT22;7731;50.720;6.912;2023-03-14T13:29:16;7.90;99.90
15257;DHT22;7731;50.720;6.912;2023-03-14T13:31:50;8.00;99.90
15257;DHT22;7731;50.720;6.912;2023-03-14T13:34:25;8.20;99.90
15257;DHT22;7731;50.720;6.912;2023-03-14T13:36:58;8.40;99.90
15257;DHT22;7731;50.720;6.912;2023-03-14T13:39:29;8.50;99.90
15257;DHT22;7731;50.720;6.912;2023-03-14T13:42:01;8.50;99.90
15257;DHT22;7731;50.720;6.912;2023-03-14T13:44:34;8.60;99.90
15257;DHT22;7731;50.720;6.912;2023-03-14T13:47:12;8.70;99.90
15257;DHT22;7731;50.720;6.912;2023-03-14T13:49:46;8.60;99.90
15257;DHT22;7731;50.720;6.912;2023-03-14T13:52:28;8.60;99.90
15257;DHT22;7731;50.720;6.912;2023-03-14T13:55:04;8.70;99.90
15257;DHT22;7731;50.720;6.912;2023-03-14T13:57:46;8.50;99.90
15257;DHT22;7731;50.720;6.912;2023-03-14T14:00:23;8.40;99.90
15257;DHT22;7731;50.720;6.912;2023-03-14T14:02:55;8.60;99.90
15257;DHT22;7731;50.720;6.912;2023-03-14T14:05:28;8.90;99.90
15257;DHT22;7731;50.720;6.912;2023-03-14T14:08:10;9.00;99.90
15257;DHT22;7731;50.720;6.912;2023-03-14T14:10:43;9.40;99.90
15257;DHT22;7731;50.720;6.912;2023-03-14T14:13:21;9.50;99.90
15257;DHT22;7731;50.720;6.912;2023-03-14T14:15:54;8.30;99.90
15257;DHT22;7731;50.720;6.912;2023-03-14T14:18:28;7.40;99.90
15257;DHT22;7731;50.720;6.912;2023-03-14T14:21:00;6.90;99.90
15257;DHT22;7731;50.720;6.912;2023-03-14T14:23:33;6.40;99.90
15257;DHT22;7731;50.720;6.912;2023-03-14T14:26:06;6.10;99.90
15257;DHT22;7731;50.720;6.912;2023-03-14T14:28:37;6.10;99.90
15257;DHT22;7731;50.720;6.912;2023-03-14T14:31:20;6.10;99.90
15257;DHT22;7731;50.720;6.912;2023-03-14T14:33:58;6.10;99.90
15257;DHT22;7731;50.720;6.912;2023-03-14T14:36:31;6.00;99.90
15257;DHT22;7731;50.720;6.912;2023-03-14T14:39:20;6.10;99.90
15257;DHT22;7731;50.720;6.912;2023-03-14T14:41:53;6.10;99.90
15257;DHT22;7731;50.720;6.912;2023-03-14T14:44:29;6.10;99.90
15257;DHT22;7731;50.720;6.912;2023-03-14T14:47:03;6.10;99.90
15257;DHT22;7731;50.720;6.912;2023-03-14T14:49:34;6.20;99.90
15257;DHT22;7731;50.720;6.912;2023-03-14T14:52:09;6.30;99.90
15257;DHT22;7731;50.720;6.912;2023-03-14T14:54:51;6.40;99.90
15257;DHT22;7731;50.720;6.912;2023-03-14T14:57:26;6.50;99.90
15257;DHT22;7731;50.720;6.912;2023-03-14T15:00:03;6.60;99.90
15257;DHT22;7731;50.720;6.912;2023-03-14T15:02:40;6.70;99.90
15257;DHT22;7731;50.720;6.912;2023-03-14T15:05:16;6.70;99.90
15257;DHT22;7731;50.720;6.912;2023-03-14T15:07:48;6.80;99.90
15257;DHT22;7731;50.720;6.912;2023-03-14T15:10:24;6.50;99.90
15257;DHT22;7731;50.720;6.912;2023-03-14T15:12:55;6.30;99.90
15257;DHT22;7731;50.720;6.912;2023-03-14T15:15:26;6.30;99.90
15257;DHT22;7731;50.720;6.912;2023-03-14T15:17:56;6.60;99.90
15257;DHT22;7731;50.720;6.912;2023-03-14T15:20:26;6.60;99.90
15257;DHT22;7731;50.720;6.912;2023-03-14T15:22:57;6.60;99.90
15257;DHT22;7731;50.720;6.912;2023-03-14T15:25:30;6.60;99.90
15257;DHT22;7731;50.720;6.912;2023-03-14T15:28:21;6.70;99.90
15257;DHT22;7731;50.720;6.912;2023-03-14T15:30:56;6.60;99.90
15257;DHT22;7731;50.720;6.912;2023-03-14T15:33:27;6.60;99.90
15257;DHT22;7731;50.720;6.912;2023-03-14T15:35:57;6.70;99.90
15257;DHT22;7731;50.720;6.912;2023-03-14T15:38:31;6.70;99.90
15257;DHT22;7731;50.720;6.912;2023-03-14T15:41:04;6.50;99.90
15257;DHT22;7731;50.720;6.912;2023-03-14T15:43:35;6.40;99.90
15257;DHT22;7731;50.720;6.912;2023-03-14T15:46:08;6.50;99.90
15257;DHT22;7731;50.720;6.912;2023-03-14T15:48:39;6.40;99.90
15257;DHT22;7731;50.720;6.912;2023-03-14T15:51:10;6.30;99.90
15257;DHT22;7731;50.720;6.912;2023-03-14T15:53:41;6.30;99.90
15257;DHT22;7731;50.720;6.912;2023-03-14T15:56:16;6.30;99.90
15257;DHT22;7731;50.720;6.912;2023-03-14T15:58:51;6.30;99.90
15257;DHT22;7731;50.720;6.912;2023-03-14T16:01:21;6.30;99.90
15257;DHT22;7731;50.720;6.912;2023-03-14T16:03:51;6.40;99.90
15257;DHT22;7731;50.720;6.912;2023-03-14T16:06:22;6.70;99.90
15257;DHT22;7731;50.720;6.912;2023-03-14T16:08:54;6.80;99.90
15257;DHT22;7731;50.720;6.912;2023-03-14T16:11:26;6.80;99.90
15257;DHT22;7731;50.720;6.912;2023-03-14T16:13:57;6.60;99.90
15257;DHT22;7731;50.720;6.912;2023-03-14T16:16:27;6.60;99.90
15257;DHT22;7731;50.720;6.912;2023-03-14T16:18:57;6.60;99.90
15257;DHT22;7731;50.720;6.912;2023-03-14T16:21:27;6.50;99.90
15257;DHT22;7731;50.720;6.912;2023-03-14T16:24:00;6.50;99.90
15257;DHT22;7731;50.720;6.912;2023-03-14T16:26:36;6.60;99.90
15257;DHT22;7731;50.720;6.912;2023-03-14T16:29:06;6.60;99.90
15257;DHT22;7731;50.720;6.912;2023-03-14T16:31:36;6.60;99.90
15257;DHT22;7731;50.720;6.912;2023-03-14T16:34:09;6.60;99.90
15257;DHT22;7731;50.720;6.912;2023-03-14T16:36:40;6.50;99.90
15257;DHT22;7731;50.720;6.912;2023-03-14T16:39:10;6.50;99.90
15257;DHT22;7731;50.720;6.912;2023-03-14T16:41:42;6.50;99.90
15257;DHT22;7731;50.720;6.912;2023-03-14T16:44:13;6.40;99.90
15257;DHT22;7731;50.720;6.912;2023-03-14T16:46:43;6.40;99.90
15257;DHT22;7731;50.720;6.912;2023-03-14T16:49:13;6.40;99.90